Time;durP1;ratioP1;P1;durP2;ratioP2;P2;SDS_P1;SDS_P2;PMS_P1;PMS_P2;Temp;Humidity;BMP_temperature;BMP_pressure;BME280_temperature;BME280_humidity;BME280_pressure;Samples;Min_cycle;Max_cycle;Signal;HPM_P1;HPM_P2
2022/07/31 00:01:45;;;;;;;3.22;2.08;;;;;;;28.56;37.52;101505.66;5011663;28;20112;-67
2022/07/31 00:04:10;;;;;;;3.50;1.95;;;;;;;28.58;37.57;101503.50;5011645;28;20030;-66
2022/07/31 00:06:36;;;;;;;3.42;2.15;;;;;;;28.61;37.53;101492.00;5011704;28;20030;-66
2022/07/31 00:09:01;;;;;;;4.57;1.63;;;;;;;28.63;36.99;101484.38;5012852;28;20097;-66
2022/07/31 00:11:27;;;;;;;3.15;2.03;;;;;;;28.65;37.48;101476.69;4995259;28;20439;-66
2022/07/31 00:13:52;;;;;;;7.93;2.28;;;;;;;28.64;37.55;101470.38;4998446;28;20426;-66
2022/07/31 00:16:20;;;;;;;4.32;2.50;;;;;;;28.62;37.83;101472.47;5015225;28;20044;-66
2022/07/31 00:18:46;;;;;;;3.13;1.90;;;;;;;28.59;37.47;101466.56;5016142;28;20041;-66
2022/07/31 00:21:12;;;;;;;3.10;2.17;;;;;;;28.54;37.13;101470.03;4998761;28;20486;-66
2022/07/31 00:23:38;;;;;;;3.97;2.30;;;;;;;28.57;36.94;101482.50;5015173;28;20403;-66
2022/07/31 00:26:03;;;;;;;2.80;1.90;;;;;;;28.54;37.05;101480.22;4998628;28;20483;-66
2022/07/31 00:28:29;;;;;;;5.32;2.03;;;;;;;28.48;37.12;101467.34;5016064;28;20022;-66
2022/07/31 00:30:54;;;;;;;2.70;1.90;;;;;;;28.47;37.46;101465.69;5014979;28;20033;-67
2022/07/31 00:33:19;;;;;;;7.15;3.03;;;;;;;28.42;37.90;101468.28;5014870;28;20388;-66
2022/07/31 00:35:45;;;;;;;4.57;2.28;;;;;;;28.39;36.67;101471.50;5014800;28;20061;-66
2022/07/31 00:38:10;;;;;;;5.07;2.50;;;;;;;28.34;37.18;101471.38;4998705;28;20495;-66
2022/07/31 00:40:36;;;;;;;4.03;1.80;;;;;;;28.30;36.72;101466.31;5014753;28;20080;-66
2022/07/31 00:43:01;;;;;;;8.07;1.70;;;;;;;28.29;37.59;101467.38;5014577;28;20034;-66
2022/07/31 00:45:27;;;;;;;10.95;2.20;;;;;;;28.28;36.93;101462.91;4982070;28;20054;-66
2022/07/31 00:47:52;;;;;;;4.18;2.20;;;;;;;28.30;37.08;101468.22;4981986;28;20029;-66
2022/07/31 00:50:18;;;;;;;3.15;1.52;;;;;;;28.30;37.43;101462.72;5014506;28;20053;-66
2022/07/31 00:52:44;;;;;;;5.18;1.70;;;;;;;28.33;37.82;101466.91;5014427;28;20021;-66
2022/07/31 00:55:09;;;;;;;3.80;1.67;;;;;;;28.33;37.67;101461.41;5014446;28;20034;-67
2022/07/31 00:57:35;;;;;;;2.20;1.60;;;;;;;28.40;37.72;101464.91;5014512;28;20453;-67
2022/07/31 01:00:00;;;;;;;7.53;2.35;;;;;;;28.41;36.95;101467.44;5014352;28;20480;-67
2022/07/31 01:02:25;;;;;;;8.60;2.58;;;;;;;28.44;36.94;101468.91;5014020;28;20026;-67
2022/07/31 01:04:51;;;;;;;3.70;2.15;;;;;;;28.44;36.68;101467.00;5013925;28;20050;-67
2022/07/31 01:07:16;;;;;;;2.08;1.70;;;;;;;28.52;37.36;101477.69;5014175;28;20068;-66
2022/07/31 01:09:43;;;;;;;4.97;2.17;;;;;;;28.54;36.27;101469.19;5015253;28;20399;-66
2022/07/31 01:12:14;;;;;;;3.17;1.27;;;;;;;28.57;37.20;101471.47;4997991;28;20032;-66
2022/07/31 01:14:44;;;;;;;5.30;2.00;;;;;;;28.60;36.19;101473.78;5014191;28;20022;-67
2022/07/31 01:17:11;;;;;;;8.15;1.50;;;;;;;28.59;36.87;101470.16;4997407;28;20112;-66
2022/07/31 01:19:40;;;;;;;4.88;1.92;;;;;;;28.61;36.65;101461.69;4997635;28;20026;-67
2022/07/31 01:22:33;;;;;;;5.88;2.03;;;;;;;28.64;36.42;101475.03;4997542;28;20025;-66
2022/07/31 01:25:15;;;;;;;2.78;1.73;;;;;;;28.63;37.07;101474.19;5014125;28;20095;-66
2022/07/31 01:27:43;;;;;;;4.05;2.15;;;;;;;28.63;37.20;101473.34;5013829;28;20030;-66
2022/07/31 01:30:09;;;;;;;6.72;2.45;;;;;;;28.61;36.65;101470.81;5013708;28;20541;-66
2022/07/31 01:32:37;;;;;;;4.03;1.98;;;;;;;28.60;37.25;101474.63;4997453;28;20026;-66
2022/07/31 01:35:24;;;;;;;3.42;2.15;;;;;;;28.60;36.93;101473.78;5013751;28;20493;-67
2022/07/31 01:38:01;;;;;;;3.20;1.73;;;;;;;28.60;36.50;101471.88;5013650;28;20044;-66
2022/07/31 01:40:35;;;;;;;3.03;2.40;;;;;;;28.60;36.14;101469.09;4997218;28;20546;-66
2022/07/31 01:43:07;;;;;;;4.72;1.70;;;;;;;28.62;36.71;101471.63;4997570;28;20046;-66
2022/07/31 01:45:33;;;;;;;4.60;2.45;;;;;;;28.63;36.08;101474.19;4997122;28;20029;-66
2022/07/31 01:48:00;;;;;;;1.80;1.50;;;;;;;28.63;36.77;101462.31;4997083;28;20029;-66
2022/07/31 01:50:26;;;;;;;6.40;1.90;;;;;;;28.63;36.24;101459.56;5013370;28;20029;-66
2022/07/31 01:52:53;;;;;;;6.82;1.98;;;;;;;28.61;36.23;101453.41;4997069;28;20029;-66
2022/07/31 01:55:19;;;;;;;5.82;1.90;;;;;;;28.61;36.36;101450.66;5013256;28;20030;-66
2022/07/31 01:57:45;;;;;;;2.65;1.30;;;;;;;28.61;36.90;101453.41;5013354;28;20028;-67
2022/07/31 02:00:11;;;;;;;2.90;1.98;;;;;;;28.59;36.59;101447.25;5013227;28;20083;-66
2022/07/31 02:02:37;;;;;;;4.68;1.65;;;;;;;28.60;36.87;101451.72;5013085;28;20484;-66
2022/07/31 02:05:06;;;;;;;1.88;1.30;;;;;;;28.58;37.00;101451.97;5014274;28;20065;-66
2022/07/31 02:07:34;;;;;;;2.30;1.40;;;;;;;28.54;37.06;101452.63;4997097;28;20037;-66
2022/07/31 02:09:59;;;;;;;3.00;1.75;;;;;;;28.52;36.70;101452.03;4996617;28;20049;-67
2022/07/31 02:12:26;;;;;;;7.72;2.05;;;;;;;28.52;35.93;101461.16;5013168;28;20166;-66
2022/07/31 02:14:52;;;;;;;3.75;1.42;;;;;;;28.49;37.24;101456.09;5012976;28;20112;-66
2022/07/31 02:17:18;;;;;;;5.57;1.40;;;;;;;28.50;37.31;101462.47;4996561;28;20448;-66
2022/07/31 02:19:44;;;;;;;1.55;1.45;;;;;;;28.46;36.61;101461.22;4996498;28;20029;-66
2022/07/31 02:22:09;;;;;;;6.38;1.40;;;;;;;28.45;36.80;101470.59;5013886;28;20065;-66
2022/07/31 02:24:35;;;;;;;2.30;1.35;;;;;;;28.38;37.23;101462.38;4996496;28;20131;-66
2022/07/31 02:27:01;;;;;;;3.78;2.40;;;;;;;28.45;37.27;101473.34;4996656;28;20030;-65
2022/07/31 02:29:29;;;;;;;3.95;1.85;;;;;;;28.43;36.60;101473.56;4996348;28;20077;-66
2022/07/31 02:31:55;;;;;;;4.72;1.20;;;;;;;28.40;37.11;101471.25;5012782;28;20450;-66
2022/07/31 02:34:21;;;;;;;1.98;1.38;;;;;;;28.40;37.29;101473.16;5012803;28;20022;-66
2022/07/31 02:36:47;;;;;;;2.58;1.35;;;;;;;28.38;36.73;101469.81;4996172;28;20029;-66
2022/07/31 02:39:13;;;;;;;1.98;1.23;;;;;;;28.37;36.74;101479.16;5013812;28;20030;-66
2022/07/31 02:41:40;;;;;;;3.92;1.25;;;;;;;28.34;36.81;101474.13;5012602;28;20033;-66
2022/07/31 02:44:05;;;;;;;1.52;1.30;;;;;;;28.29;37.01;101466.53;5012574;28;20057;-66
2022/07/31 02:46:31;;;;;;;1.75;1.17;;;;;;;28.30;36.48;101473.72;4996294;28;20026;-65
2022/07/31 02:48:57;;;;;;;1.13;1.00;;;;;;;28.30;36.68;101465.47;5013606;28;20392;-66
2022/07/31 02:51:22;;;;;;;1.45;1.17;;;;;;;28.27;36.84;101464.00;4996178;28;20095;-66
2022/07/31 02:53:48;;;;;;;2.97;1.15;;;;;;;28.27;36.33;101468.66;4979886;28;20025;-66
2022/07/31 02:56:14;;;;;;;2.45;0.98;;;;;;;28.25;37.00;101470.81;5012437;28;20057;-66
2022/07/31 02:58:43;;;;;;;2.10;1.05;;;;;;;28.23;37.33;101479.31;4995999;28;20033;-67
2022/07/31 03:01:08;;;;;;;5.03;1.27;;;;;;;28.20;37.22;101478.91;5012469;28;20034;-66
2022/07/31 03:03:34;;;;;;;1.15;1.05;;;;;;;28.18;37.34;101481.06;5013550;28;20479;-67
2022/07/31 03:05:59;;;;;;;2.25;1.40;;;;;;;28.14;37.20;101466.91;4995792;28;20057;-67
2022/07/31 03:08:26;;;;;;;1.40;0.98;;;;;;;28.11;36.96;101469.28;4995980;28;20048;-66
2022/07/31 03:10:52;;;;;;;2.28;1.10;;;;;;;28.09;37.04;101475.00;5012339;28;20022;-66
2022/07/31 03:13:19;;;;;;;2.70;1.40;;;;;;;28.04;37.35;101463.84;5012306;28;20033;-66
2022/07/31 03:15:45;;;;;;;2.13;1.05;;;;;;;27.99;37.38;101471.91;5013435;28;20026;-66
2022/07/31 03:18:13;;;;;;;5.45;1.10;;;;;;;27.96;37.06;101461.34;4996036;28;20030;-67
2022/07/31 03:20:39;;;;;;;4.70;1.23;;;;;;;27.92;37.10;101460.09;5012257;28;20058;-66
2022/07/31 03:23:05;;;;;;;2.60;1.00;;;;;;;27.88;36.85;101469.91;5012047;28;20018;-65
2022/07/31 03:25:34;;;;;;;3.88;1.17;;;;;;;27.83;37.51;101458.75;4995699;28;20084;-65
2022/07/31 03:27:59;;;;;;;4.57;1.50;;;;;;;27.80;37.69;101450.94;5013256;28;20495;-65
2022/07/31 03:30:25;;;;;;;1.60;1.13;;;;;;;27.77;37.38;101448.63;4995852;28;20053;-65
2022/07/31 03:32:51;;;;;;;1.17;0.93;;;;;;;27.75;37.26;101456.25;4995688;28;20025;-65
2022/07/31 03:35:17;;;;;;;1.13;1.00;;;;;;;27.72;38.04;101459.50;5013442;28;20084;-65
2022/07/31 03:37:43;;;;;;;6.07;2.10;;;;;;;27.66;38.02;101449.38;5012074;28;20096;-65
2022/07/31 03:40:09;;;;;;;2.53;1.10;;;;;;;27.62;37.90;101448.13;5012010;28;20480;-65
2022/07/31 03:42:34;;;;;;;3.75;1.08;;;;;;;27.58;38.00;101444.97;4995497;28;20387;-65
2022/07/31 03:45:01;;;;;;;2.30;1.10;;;;;;;27.57;37.86;101446.06;5012060;28;20022;-65
2022/07/31 03:47:26;;;;;;;3.67;1.40;;;;;;;27.58;37.98;101463.44;5013163;28;20391;-65
2022/07/31 03:49:52;;;;;;;4.63;1.30;;;;;;;27.56;37.99;101449.03;5016669;28;20030;-65
2022/07/31 03:52:18;;;;;;;2.53;1.10;;;;;;;27.56;37.62;101454.53;4999289;28;20026;-65
2022/07/31 03:54:43;;;;;;;1.35;0.95;;;;;;;27.56;37.72;101451.78;4999164;28;20407;-65
2022/07/31 03:57:09;;;;;;;1.33;0.98;;;;;;;27.53;38.10;101441.22;5015477;28;20030;-65
2022/07/31 03:59:35;;;;;;;2.80;1.00;;;;;;;27.52;38.02;101447.81;5015423;28;20030;-65
2022/07/31 04:02:00;;;;;;;2.17;0.90;;;;;;;27.47;38.05;101450.41;5015191;28;20026;-66
2022/07/31 04:04:26;;;;;;;1.85;1.00;;;;;;;27.46;38.78;101457.81;5016381;28;20045;-65
2022/07/31 04:06:52;;;;;;;4.50;1.10;;;;;;;27.43;38.99;101455.50;5015318;28;20329;-65
2022/07/31 04:09:19;;;;;;;2.13;1.08;;;;;;;27.43;38.34;101465.66;5016410;28;20483;-65
2022/07/31 04:11:44;;;;;;;1.83;1.00;;;;;;;27.42;38.44;101459.31;4999061;28;20483;-65
2022/07/31 04:14:10;;;;;;;1.50;0.93;;;;;;;27.41;38.55;101457.66;5016416;28;20087;-65
2022/07/31 04:16:35;;;;;;;1.10;0.90;;;;;;;27.42;38.74;101458.47;4998930;28;20082;-65
2022/07/31 04:19:00;;;;;;;0.88;0.77;;;;;;;27.40;38.55;101461.41;5014935;28;20034;-65
2022/07/31 04:21:26;;;;;;;1.48;1.00;;;;;;;27.39;38.86;101458.88;4998625;28;20034;-65
2022/07/31 04:23:51;;;;;;;1.90;1.08;;;;;;;27.38;39.17;101451.69;5015025;28;20528;-67
2022/07/31 04:26:17;;;;;;;2.75;1.05;;;;;;;27.39;38.51;101458.88;4998650;28;20124;-65
2022/07/31 04:28:42;;;;;;;3.08;1.00;;;;;;;27.38;38.74;101465.47;5015015;28;20115;-65
2022/07/31 04:31:08;;;;;;;2.22;1.42;;;;;;;27.33;38.76;101465.31;4998438;28;20030;-65
2022/07/31 04:33:33;;;;;;;2.38;0.85;;;;;;;27.33;38.71;101468.06;5015108;28;20100;-65
2022/07/31 04:35:58;;;;;;;5.80;1.13;;;;;;;27.30;39.84;101466.59;5015301;28;20099;-65
2022/07/31 04:38:24;;;;;;;0.95;0.80;;;;;;;27.29;39.00;101475.06;5014679;28;20038;-66
2022/07/31 04:40:50;;;;;;;1.30;1.10;;;;;;;27.26;39.31;101475.50;5015872;28;20045;-65
2022/07/31 04:43:15;;;;;;;2.10;1.20;;;;;;;27.27;39.44;101471.69;5015811;28;20052;-65
2022/07/31 04:45:41;;;;;;;2.92;1.08;;;;;;;27.27;39.05;101469.78;5014771;28;20049;-65
2022/07/31 04:48:07;;;;;;;1.05;0.70;;;;;;;27.25;39.62;101469.16;5015768;28;20053;-65
2022/07/31 04:50:33;;;;;;;2.47;1.73;;;;;;;27.28;39.10;101473.34;5014471;28;20049;-65
2022/07/31 04:52:58;;;;;;;1.90;0.80;;;;;;;27.29;39.78;101475.06;5014939;28;20017;-65
2022/07/31 04:55:23;;;;;;;4.55;0.77;;;;;;;27.30;39.44;101476.75;5015704;28;20108;-65
2022/07/31 04:57:49;;;;;;;3.00;0.70;;;;;;;27.36;39.63;101475.88;4997825;28;20026;-65
2022/07/31 05:00:14;;;;;;;1.05;0.70;;;;;;;27.39;40.01;101475.38;5013320;28;20025;-65
2022/07/31 05:02:40;;;;;;;1.02;0.70;;;;;;;27.38;39.63;101473.72;5014276;28;20084;-65
2022/07/31 05:05:05;;;;;;;1.52;0.80;;;;;;;27.43;40.09;101485.78;4997792;28;20542;-65
2022/07/31 05:07:31;;;;;;;2.85;0.60;;;;;;;27.47;39.44;101483.44;5014172;28;20032;-65
2022/07/31 05:09:57;;;;;;;1.13;0.75;;;;;;;27.45;39.79;101480.88;4997951;28;20458;-65
2022/07/31 05:12:22;;;;;;;1.38;0.70;;;;;;;27.50;40.22;101477.47;4997973;28;20030;-65
2022/07/31 05:14:48;;;;;;;0.88;0.70;;;;;;;27.56;40.03;101479.31;4997642;28;20047;-65
2022/07/31 05:17:13;;;;;;;5.32;0.73;;;;;;;27.55;40.23;101469.38;5014114;28;20025;-66
2022/07/31 05:19:39;;;;;;;1.25;1.00;;;;;;;27.54;39.69;101474.03;4997659;28;20034;-65
2022/07/31 05:22:04;;;;;;;1.48;1.13;;;;;;;27.53;39.95;101474.25;5015117;28;20033;-65
2022/07/31 05:24:30;;;;;;;5.00;1.00;;;;;;;27.54;40.17;101471.28;5013859;28;20026;-65
2022/07/31 05:26:56;;;;;;;0.85;0.75;;;;;;;27.54;40.19;101467.69;5013804;28;20160;-65
2022/07/31 05:29:21;;;;;;;1.13;0.52;;;;;;;27.59;40.31;101465.09;4997569;28;20034;-66
2022/07/31 05:31:46;;;;;;;2.67;1.15;;;;;;;27.58;40.35;101463.44;4997374;28;20026;-65
2022/07/31 05:34:12;;;;;;;1.85;0.70;;;;;;;27.58;40.41;101463.44;4981131;28;20034;-65
2022/07/31 05:36:37;;;;;;;2.38;1.05;;;;;;;27.59;41.02;101454.09;5015201;28;20037;-65
2022/07/31 05:39:03;;;;;;;3.05;1.05;;;;;;;27.58;41.01;101458.75;5013585;28;20069;-65
2022/07/31 05:41:29;;;;;;;2.15;0.70;;;;;;;27.56;40.63;101457.28;5014682;28;20041;-65
2022/07/31 05:43:55;;;;;;;1.55;1.08;;;;;;;27.54;39.67;101456.69;4997313;28;20033;-65
2022/07/31 05:46:20;;;;;;;1.63;1.00;;;;;;;27.50;40.61;101452.69;5013359;28;20491;-65
2022/07/31 05:48:45;;;;;;;2.70;0.82;;;;;;;27.48;41.24;101460.31;4997266;28;20541;-65
2022/07/31 05:51:12;;;;;;;1.08;0.55;;;;;;;27.47;40.50;101466.91;4997123;28;20109;-64
2022/07/31 05:53:38;;;;;;;1.77;0.93;;;;;;;27.46;40.67;101459.72;5013316;28;20065;-65
2022/07/31 05:56:05;;;;;;;3.55;1.02;;;;;;;27.44;41.47;101459.94;4996934;28;20026;-65
2022/07/31 05:58:30;;;;;;;0.60;0.60;;;;;;;27.44;40.60;101462.69;5013368;28;20064;-65
2022/07/31 06:00:55;;;;;;;1.38;0.95;;;;;;;27.45;40.90;101458.00;4996882;28;20065;-65
2022/07/31 06:03:22;;;;;;;0.93;0.90;;;;;;;27.45;41.69;101458.00;5013116;28;20451;-65
2022/07/31 06:05:48;;;;;;;1.23;0.85;;;;;;;27.43;41.94;101461.00;5012995;28;20057;-64
2022/07/31 06:08:13;;;;;;;1.55;0.90;;;;;;;27.43;41.68;101447.25;5013099;28;20042;-66
2022/07/31 06:10:38;;;;;;;1.92;0.90;;;;;;;27.48;41.71;101441.06;5012537;28;20033;-64
2022/07/31 06:13:04;;;;;;;2.85;1.02;;;;;;;27.55;41.12;101447.34;4996717;28;20053;-65
2022/07/31 06:15:30;;;;;;;2.45;0.90;;;;;;;27.58;41.05;101444.16;5012963;28;20021;-65
2022/07/31 06:17:55;;;;;;;1.77;0.63;;;;;;;27.61;41.74;101446.47;5012758;28;20038;-64
2022/07/31 06:20:20;;;;;;;2.22;0.60;;;;;;;27.66;41.29;101444.72;4996498;28;20037;-65
2022/07/31 06:22:46;;;;;;;1.08;0.95;;;;;;;27.68;41.76;101441.72;5013900;28;20607;-65
2022/07/31 06:25:12;;;;;;;0.60;0.50;;;;;;;27.73;41.87;101452.88;5012885;28;20022;-65
2022/07/31 06:27:37;;;;;;;2.45;0.88;;;;;;;27.75;41.11;101453.50;4996203;28;20033;-65
2022/07/31 06:30:04;;;;;;;0.93;0.93;;;;;;;27.80;41.80;101464.69;5013961;28;20099;-65
2022/07/31 06:32:30;;;;;;;3.13;0.90;;;;;;;27.84;41.84;101462.31;5012657;28;20018;-65
2022/07/31 06:34:56;;;;;;;1.00;0.77;;;;;;;27.86;41.62;101454.69;4996336;28;20040;-65
2022/07/31 06:37:21;;;;;;;2.75;0.80;;;;;;;27.97;41.20;101453.94;4996377;28;20462;-65
2022/07/31 06:39:46;;;;;;;1.40;0.70;;;;;;;28.05;41.16;101445.41;5012972;28;20033;-65
2022/07/31 06:42:19;;;;;;;0.80;0.80;;;;;;;28.15;41.70;101448.44;4995999;28;20033;-65
2022/07/31 06:44:45;;;;;;;1.42;0.50;;;;;;;28.27;41.39;101453.00;4996159;28;20057;-65
2022/07/31 06:47:10;;;;;;;4.90;1.00;;;;;;;28.38;41.15;101447.75;5012619;28;20439;-65
2022/07/31 06:49:36;;;;;;;1.35;0.63;;;;;;;28.44;41.05;101435.81;5013535;28;20109;-65
2022/07/31 06:52:01;;;;;;;3.13;0.98;;;;;;;28.53;41.46;101437.19;5012421;28;20124;-65
2022/07/31 06:54:26;;;;;;;3.20;1.10;;;;;;;28.60;40.76;101441.53;4996193;28;20061;-65
2022/07/31 06:56:52;;;;;;;2.13;0.90;;;;;;;28.68;41.45;101434.88;4995911;28;20061;-65
2022/07/31 06:59:17;;;;;;;1.27;0.70;;;;;;;28.78;41.34;101443.44;5012221;28;20030;-65
2022/07/31 07:01:43;;;;;;;2.58;0.70;;;;;;;28.93;40.47;101440.25;4979658;28;20045;-65
2022/07/31 07:04:08;;;;;;;2.13;0.77;;;;;;;29.04;41.62;101440.28;5012231;28;20041;-65
2022/07/31 07:06:34;;;;;;;2.95;0.93;;;;;;;29.18;41.45;101439.00;5013333;28;20569;-65
2022/07/31 07:08:59;;;;;;;6.13;0.90;;;;;;;29.29;40.49;101440.97;4995781;28;20036;-65
2022/07/31 07:11:24;;;;;;;0.80;0.70;;;;;;;29.39;40.22;101430.19;5012243;28;20463;-66
2022/07/31 07:13:50;;;;;;;0.65;0.57;;;;;;;29.58;40.00;101427.31;5012167;28;20431;-65
2022/07/31 07:16:15;;;;;;;2.97;0.90;;;;;;;29.65;40.03;101428.88;4995748;28;20037;-65
2022/07/31 07:18:41;;;;;;;0.80;0.60;;;;;;;29.80;40.41;101422.91;4995772;28;20080;-65
2022/07/31 07:21:07;;;;;;;3.33;1.00;;;;;;;29.85;40.46;101429.38;4995744;28;20026;-66
2022/07/31 07:23:32;;;;;;;1.38;1.13;;;;;;;29.90;40.17;101432.25;5015146;28;20132;-66
2022/07/31 07:25:58;;;;;;;2.85;0.70;;;;;;;29.89;40.09;101433.38;4983589;28;20068;-65
2022/07/31 07:28:23;;;;;;;2.25;0.85;;;;;;;29.95;40.27;101435.16;5015837;28;20491;-65
2022/07/31 07:30:48;;;;;;;4.10;0.70;;;;;;;30.04;40.13;101432.84;5015849;28;20029;-66
2022/07/31 07:33:14;;;;;;;1.50;0.95;;;;;;;30.01;40.12;101438.88;5015808;28;20033;-66
2022/07/31 07:35:40;;;;;;;1.02;0.70;;;;;;;29.98;39.83;101434.66;5015914;28;20034;-66
2022/07/31 07:38:06;;;;;;;3.05;0.70;;;;;;;30.01;40.67;101433.34;4999551;28;20431;-66
2022/07/31 07:40:31;;;;;;;1.55;0.70;;;;;;;29.98;40.39;101422.78;5015666;28;20065;-65
2022/07/31 07:42:57;;;;;;;2.25;0.80;;;;;;;30.00;40.09;101423.38;4999267;28;20056;-65
2022/07/31 07:45:23;;;;;;;1.77;0.73;;;;;;;30.06;40.29;101425.16;4999243;28;20033;-65
2022/07/31 07:47:48;;;;;;;1.50;0.60;;;;;;;30.11;39.82;101425.28;5015618;28;20475;-66
2022/07/31 07:50:14;;;;;;;1.30;0.90;;;;;;;30.16;39.83;101419.84;4999170;28;20030;-66
2022/07/31 07:52:40;;;;;;;1.95;1.00;;;;;;;30.23;39.97;101425.25;4982905;28;20026;-66
2022/07/31 07:55:07;;;;;;;3.33;0.70;;;;;;;30.32;39.44;101430.13;4999096;28;20404;-66
2022/07/31 07:57:34;;;;;;;1.55;0.70;;;;;;;30.42;39.67;101433.16;4999153;28;20042;-66
2022/07/31 07:59:59;;;;;;;1.42;0.80;;;;;;;30.42;39.41;101432.31;4999089;28;20065;-66
2022/07/31 08:02:25;;;;;;;1.67;0.80;;;;;;;30.44;39.61;101432.91;5015331;28;20060;-66
2022/07/31 08:04:51;;;;;;;0.85;0.80;;;;;;;30.45;39.88;101431.84;4998841;28;20411;-66
2022/07/31 08:07:16;;;;;;;1.42;1.13;;;;;;;30.47;39.82;101429.66;5016458;28;20040;-66
2022/07/31 08:09:42;;;;;;;1.38;0.90;;;;;;;30.44;39.89;101431.00;5015174;28;20033;-65
2022/07/31 08:12:07;;;;;;;1.42;0.85;;;;;;;30.43;39.61;101432.06;5015374;28;20080;-65
2022/07/31 08:14:33;;;;;;;2.08;0.93;;;;;;;30.41;40.12;101437.00;5015202;28;20030;-65
2022/07/31 08:16:59;;;;;;;2.60;0.93;;;;;;;30.36;39.39;101425.81;5015069;28;20373;-66
2022/07/31 08:19:24;;;;;;;5.90;1.30;;;;;;;30.35;39.97;101424.13;5016358;28;20057;-66
2022/07/31 08:21:50;;;;;;;0.90;0.88;;;;;;;30.37;39.70;101426.69;5014988;28;20061;-66
2022/07/31 08:24:15;;;;;;;2.90;1.02;;;;;;;30.48;39.68;101434.97;4998747;28;20042;-66
2022/07/31 08:29:26;;;;;;;2.17;1.10;;;;;;;30.84;38.81;101430.09;5015165;28;20554;-65
2022/07/31 08:31:51;;;;;;;4.03;1.02;;;;;;;31.25;38.84;101424.22;4998409;28;20018;-66
2022/07/31 08:34:17;;;;;;;3.80;1.25;;;;;;;31.92;37.86;101419.50;5014566;28;20053;-66
2022/07/31 08:36:42;;;;;;;1.92;1.00;;;;;;;32.40;37.17;101421.56;5014895;28;20050;-65
2022/07/31 08:39:08;;;;;;;2.25;1.15;;;;;;;32.76;37.51;101415.34;5014743;28;20026;-66
2022/07/31 08:41:37;;;;;;;1.20;1.02;;;;;;;33.32;36.40;101413.09;4998449;28;20025;-66
2022/07/31 08:44:03;;;;;;;1.67;1.17;;;;;;;33.39;37.15;101414.56;4998734;28;20022;-66
2022/07/31 08:46:31;;;;;;;3.33;1.65;;;;;;;33.22;36.94;101401.94;4998504;28;20033;-66
2022/07/31 08:48:58;;;;;;;2.83;1.17;;;;;;;33.08;37.49;101418.19;4998538;28;20115;-66
2022/07/31 08:51:24;;;;;;;2.42;1.50;;;;;;;32.97;37.49;101412.78;4998221;28;20030;-66
2022/07/31 08:53:50;;;;;;;2.45;1.42;;;;;;;32.96;36.71;101419.41;5014461;28;20105;-66
2022/07/31 08:56:16;;;;;;;0.88;0.65;;;;;;;33.18;36.99;101406.31;5014321;28;20052;-66
2022/07/31 08:58:43;;;;;;;3.30;1.27;;;;;;;33.36;36.81;101409.53;5014481;28;20113;-66
2022/07/31 09:01:11;;;;;;;2.92;1.42;;;;;;;33.29;36.79;101408.09;5014402;28;20479;-66
2022/07/31 09:03:37;;;;;;;1.75;1.10;;;;;;;33.16;36.93;101419.66;5014257;28;20034;-66
2022/07/31 09:06:04;;;;;;;4.22;1.15;;;;;;;33.15;36.37;101409.63;5014187;28;20054;-66
2022/07/31 09:08:33;;;;;;;1.63;1.23;;;;;;;33.43;36.47;101403.75;5014344;28;20450;-66
2022/07/31 09:11:07;;;;;;;3.53;1.45;;;;;;;33.63;35.58;101409.50;4997751;28;20024;-66
2022/07/31 09:13:33;;;;;;;1.77;1.17;;;;;;;33.66;35.82;101408.97;5014045;28;20018;-66
2022/07/31 09:15:59;;;;;;;1.00;0.82;;;;;;;33.78;35.84;101398.44;5014038;28;20100;-66
2022/07/31 09:18:25;;;;;;;1.85;1.13;;;;;;;34.19;35.84;101407.03;4997631;28;20032;-66
2022/07/31 09:20:59;;;;;;;0.85;0.85;;;;;;;34.65;34.38;101411.69;4998027;28;20029;-66
2022/07/31 09:23:25;;;;;;;3.17;1.10;;;;;;;34.90;35.16;101403.38;5013948;28;20052;-66
2022/07/31 09:25:59;;;;;;;1.73;1.08;;;;;;;35.27;34.10;101396.72;5015206;28;20037;-66
2022/07/31 09:28:39;;;;;;;2.42;1.05;;;;;;;35.40;34.40;101382.25;5015036;28;20480;-66
2022/07/31 09:31:06;;;;;;;2.35;1.52;;;;;;;35.41;34.11;101393.09;4997857;28;20037;-66
2022/07/31 09:33:31;;;;;;;0.90;0.90;;;;;;;35.68;34.06;101389.22;4997288;28;20075;-66
2022/07/31 09:35:58;;;;;;;1.60;1.10;;;;;;;35.97;33.93;101395.81;5013601;28;20120;-66
2022/07/31 09:38:35;;;;;;;2.53;0.80;;;;;;;36.21;33.33;101386.53;5013780;28;20495;-67
2022/07/31 09:41:11;;;;;;;1.65;1.52;;;;;;;36.34;33.35;101367.50;4997205;28;20022;-66
2022/07/31 09:43:38;;;;;;;1.60;1.40;;;;;;;36.67;32.77;101372.34;5013392;28;20026;-66
2022/07/31 09:46:05;;;;;;;2.53;1.08;;;;;;;36.61;33.09;101379.09;4980788;28;20546;-66
2022/07/31 09:48:30;;;;;;;1.10;0.90;;;;;;;36.53;32.79;101379.69;4997191;28;20058;-66
2022/07/31 09:50:58;;;;;;;2.83;1.30;;;;;;;36.64;32.51;101378.50;5013627;28;20041;-66
2022/07/31 09:53:24;;;;;;;1.75;1.20;;;;;;;36.43;33.06;101377.78;4997180;28;20072;-66
2022/07/31 09:55:54;;;;;;;2.63;0.98;;;;;;;36.55;32.60;101374.66;5013443;28;20022;-66
2022/07/31 09:58:21;;;;;;;1.10;1.10;;;;;;;36.76;32.08;101381.78;5013394;28;20087;-66
2022/07/31 10:00:47;;;;;;;4.85;1.30;;;;;;;37.17;32.12;101374.78;5013438;28;20053;-66
2022/07/31 10:03:13;;;;;;;1.17;1.10;;;;;;;37.39;31.91;101370.66;4996678;28;20041;-66
2022/07/31 10:05:40;;;;;;;1.35;1.25;;;;;;;37.57;32.13;101358.78;5012898;28;20046;-66
2022/07/31 10:08:06;;;;;;;1.58;1.10;;;;;;;37.46;31.82;101368.41;4996969;28;20443;-66
2022/07/31 10:10:32;;;;;;;1.92;1.23;;;;;;;37.47;31.45;101370.88;5013196;28;20033;-66
2022/07/31 10:13:02;;;;;;;3.67;1.40;;;;;;;37.33;31.52;101362.31;5014356;28;20041;-66
2022/07/31 10:15:28;;;;;;;1.70;1.02;;;;;;;37.32;31.36;101359.84;5013275;28;20032;-66
2022/07/31 10:17:54;;;;;;;1.52;1.17;;;;;;;37.40;30.99;101363.94;5012969;28;20033;-66
2022/07/31 10:20:22;;;;;;;3.80;0.95;;;;;;;37.74;30.70;101375.94;4996566;28;20026;-66
2022/07/31 10:22:53;;;;;;;1.10;1.00;;;;;;;37.56;31.18;101368.28;5012515;28;20018;-66
2022/07/31 10:25:24;;;;;;;2.00;1.20;;;;;;;37.36;31.40;101380.47;4996240;28;20041;-66
2022/07/31 10:27:52;;;;;;;1.85;1.20;;;;;;;37.47;31.15;101375.66;5012780;28;20029;-66
2022/07/31 10:30:17;;;;;;;1.08;0.90;;;;;;;37.52;31.23;101367.22;5012575;28;20026;-66
2022/07/31 10:32:43;;;;;;;4.15;1.20;;;;;;;37.48;31.47;101363.34;5012595;28;20041;-66
2022/07/31 10:35:09;;;;;;;1.02;0.90;;;;;;;37.54;31.65;101362.16;5021553;28;20025;-66
2022/07/31 10:38:02;;;;;;;1.60;1.17;;;;;;;37.42;31.61;101367.28;5032367;28;20021;-66
2022/07/31 10:40:36;;;;;;;1.55;1.38;;;;;;;38.25;31.00;101365.78;5031851;28;20021;-66
2022/07/31 10:43:44;;;;;;;2.13;1.05;;;;;;;38.47;30.25;101363.25;5033356;28;20048;-66
2022/07/31 10:46:10;;;;;;;1.73;1.10;;;;;;;38.39;30.26;101361.13;5022565;28;20033;-65
2022/07/31 10:48:36;;;;;;;1.95;1.33;;;;;;;38.53;30.54;101358.41;5015772;28;20489;-66
2022/07/31 10:51:04;;;;;;;1.90;1.10;;;;;;;38.24;30.49;101364.13;5032161;28;20029;-66
2022/07/31 10:53:29;;;;;;;1.42;1.33;;;;;;;37.87;31.21;101358.41;5015624;28;20048;-66
2022/07/31 10:56:09;;;;;;;1.38;1.27;;;;;;;38.37;29.50;101362.59;5033207;28;20076;-66
2022/07/31 10:58:46;;;;;;;1.88;1.25;;;;;;;38.30;29.71;101351.75;5032130;28;20395;-66
2022/07/31 11:01:11;;;;;;;1.88;1.60;;;;;;;38.16;30.74;101349.97;5031975;28;20029;-66
2022/07/31 11:03:39;;;;;;;2.20;1.63;;;;;;;37.93;30.48;101351.66;4999061;28;20394;-66
2022/07/31 11:06:05;;;;;;;1.98;1.52;;;;;;;37.65;30.60;101355.31;5015286;28;20476;-66
2022/07/31 11:08:43;;;;;;;5.63;1.80;;;;;;;37.33;30.89;101339.97;5033174;28;20056;-66
2022/07/31 11:11:09;;;;;;;2.42;2.22;;;;;;;37.21;31.00;101339.53;5032021;28;20471;-66
2022/07/31 11:13:51;;;;;;;1.60;1.50;;;;;;;37.29;30.83;101341.69;5032025;28;20033;-66
2022/07/31 11:16:18;;;;;;;2.15;1.98;;;;;;;37.26;30.73;101342.28;5031961;28;20033;-66
2022/07/31 11:18:45;;;;;;;3.58;2.10;;;;;;;37.20;30.35;101340.66;5031866;28;20022;-66
2022/07/31 11:21:11;;;;;;;2.08;1.88;;;;;;;37.32;30.78;101341.09;5015615;28;20074;-66
2022/07/31 11:23:36;;;;;;;2.10;1.90;;;;;;;37.55;30.65;101333.06;5032925;28;20555;-66
2022/07/31 11:26:05;;;;;;;4.43;1.80;;;;;;;37.55;30.25;101338.66;5031811;28;20095;-66